sensor_id;sensor_type;location;lat;lon;timestamp;P1;durP1;ratioP1;P2;durP2;ratioP2
33926;SDS011;20485;50.992;5.550;2023-11-19T08:48:18;63.22;;;6.00;;
33926;SDS011;20485;50.992;5.550;2023-11-19T08:50:47;60.13;;;7.32;;
33926;SDS011;20485;50.992;5.550;2023-11-19T08:53:15;48.38;;;6.60;;
33926;SDS011;20485;50.992;5.550;2023-11-19T08:55:43;55.22;;;5.47;;
33926;SDS011;20485;50.992;5.550;2023-11-19T08:58:10;43.50;;;5.45;;
33926;SDS011;20485;50.992;5.550;2023-11-19T09:00:40;69.80;;;6.13;;
33926;SDS011;20485;50.992;5.550;2023-11-19T09:03:08;48.53;;;5.43;;
33926;SDS011;20485;50.992;5.550;2023-11-19T09:05:35;43.40;;;4.80;;
33926;SDS011;20485;50.992;5.550;2023-11-19T09:08:06;41.13;;;5.45;;
33926;SDS011;20485;50.992;5.550;2023-11-19T09:10:40;48.53;;;6.65;;
33926;SDS011;20485;50.992;5.550;2023-11-19T09:13:10;48.90;;;6.22;;
33926;SDS011;20485;50.992;5.550;2023-11-19T09:15:46;46.30;;;5.88;;
33926;SDS011;20485;50.992;5.550;2023-11-19T09:18:15;40.15;;;6.47;;
33926;SDS011;20485;50.992;5.550;2023-11-19T09:20:46;40.22;;;4.95;;
33926;SDS011;20485;50.992;5.550;2023-11-19T09:23:13;55.88;;;5.32;;
33926;SDS011;20485;50.992;5.550;2023-11-19T09:25:55;48.00;;;5.35;;
33926;SDS011;20485;50.992;5.550;2023-11-19T09:28:25;42.40;;;5.05;;
33926;SDS011;20485;50.992;5.550;2023-11-19T09:31:02;36.30;;;5.57;;
33926;SDS011;20485;50.992;5.550;2023-11-19T09:33:43;42.40;;;4.40;;
33926;SDS011;20485;50.992;5.550;2023-11-19T09:36:11;42.08;;;5.50;;
33926;SDS011;20485;50.992;5.550;2023-11-19T09:38:45;41.67;;;5.35;;
33926;SDS011;20485;50.992;5.550;2023-11-19T09:41:18;39.22;;;4.95;;
33926;SDS011;20485;50.992;5.550;2023-11-19T09:44:16;41.03;;;5.85;;
33926;SDS011;20485;50.992;5.550;2023-11-19T09:47:05;43.53;;;4.43;;
33926;SDS011;20485;50.992;5.550;2023-11-19T09:49:36;39.92;;;4.38;;
33926;SDS011;20485;50.992;5.550;2023-11-19T09:52:05;33.97;;;4.75;;
33926;SDS011;20485;50.992;5.550;2023-11-19T09:54:33;39.05;;;4.80;;
33926;SDS011;20485;50.992;5.550;2023-11-19T09:57:16;42.45;;;6.13;;
33926;SDS011;20485;50.992;5.550;2023-11-19T09:59:47;33.58;;;4.53;;
33926;SDS011;20485;50.992;5.550;2023-11-19T10:02:17;31.70;;;4.70;;
33926;SDS011;20485;50.992;5.550;2023-11-19T10:05:14;39.00;;;4.10;;
33926;SDS011;20485;50.992;5.550;2023-11-19T10:07:47;34.17;;;4.75;;
33926;SDS011;20485;50.992;5.550;2023-11-19T10:10:30;42.53;;;4.68;;
33926;SDS011;20485;50.992;5.550;2023-11-19T10:13:15;28.13;;;4.50;;
33926;SDS011;20485;50.992;5.550;2023-11-19T10:15:42;27.67;;;4.43;;
33926;SDS011;20485;50.992;5.550;2023-11-19T10:18:39;37.20;;;4.78;;
33926;SDS011;20485;50.992;5.550;2023-11-19T10:21:13;38.47;;;4.57;;
33926;SDS011;20485;50.992;5.550;2023-11-19T10:23:55;45.78;;;6.05;;
33926;SDS011;20485;50.992;5.550;2023-11-19T10:26:27;30.70;;;4.25;;
33926;SDS011;20485;50.992;5.550;2023-11-19T10:29:12;41.10;;;4.78;;
33926;SDS011;20485;50.992;5.550;2023-11-19T10:31:49;43.38;;;5.10;;
33926;SDS011;20485;50.992;5.550;2023-11-19T10:34:28;35.15;;;4.30;;
33926;SDS011;20485;50.992;5.550;2023-11-19T10:36:59;40.25;;;5.55;;
33926;SDS011;20485;50.992;5.550;2023-11-19T10:49:12;24.70;;;3.38;;
33926;SDS011;20485;50.992;5.550;2023-11-19T10:51:53;30.92;;;4.32;;
33926;SDS011;20485;50.992;5.550;2023-11-19T10:54:24;37.35;;;5.03;;
33926;SDS011;20485;50.992;5.550;2023-11-19T10:56:58;26.38;;;4.13;;
33926;SDS011;20485;50.992;5.550;2023-11-19T10:59:32;33.50;;;4.88;;
33926;SDS011;20485;50.992;5.550;2023-11-19T11:02:26;20.42;;;3.75;;
33926;SDS011;20485;50.992;5.550;2023-11-19T11:05:00;34.58;;;4.50;;
33926;SDS011;20485;50.992;5.550;2023-11-19T11:07:35;35.13;;;4.13;;
33926;SDS011;20485;50.992;5.550;2023-11-19T11:10:05;40.80;;;4.88;;
33926;SDS011;20485;50.992;5.550;2023-11-19T11:13:00;39.40;;;4.90;;
33926;SDS011;20485;50.992;5.550;2023-11-19T11:38:06;31.85;;;4.68;;
33926;SDS011;20485;50.992;5.550;2023-11-19T11:40:37;35.35;;;4.40;;
33926;SDS011;20485;50.992;5.550;2023-11-19T11:57:07;25.65;;;3.70;;
33926;SDS011;20485;50.992;5.550;2023-11-19T11:59:45;32.80;;;4.05;;
33926;SDS011;20485;50.992;5.550;2023-11-19T12:02:31;28.98;;;3.55;;
33926;SDS011;20485;50.992;5.550;2023-11-19T12:05:22;30.65;;;3.85;;
33926;SDS011;20485;50.992;5.550;2023-11-19T12:08:00;29.30;;;3.65;;
33926;SDS011;20485;50.992;5.550;2023-11-19T12:10:36;33.42;;;4.20;;
33926;SDS011;20485;50.992;5.550;2023-11-19T12:13:20;32.60;;;4.80;;
33926;SDS011;20485;50.992;5.550;2023-11-19T12:18:30;26.05;;;3.88;;
33926;SDS011;20485;50.992;5.550;2023-11-19T12:21:01;35.15;;;4.30;;
33926;SDS011;20485;50.992;5.550;2023-11-19T12:23:43;33.85;;;5.53;;
33926;SDS011;20485;50.992;5.550;2023-11-19T12:26:20;36.43;;;4.73;;
33926;SDS011;20485;50.992;5.550;2023-11-19T12:29:20;31.27;;;4.00;;
33926;SDS011;20485;50.992;5.550;2023-11-19T12:32:17;33.88;;;4.60;;
33926;SDS011;20485;50.992;5.550;2023-11-19T12:37:09;18.65;;;4.07;;
33926;SDS011;20485;50.992;5.550;2023-11-19T12:39:37;32.10;;;4.45;;
33926;SDS011;20485;50.992;5.550;2023-11-19T12:42:06;33.30;;;4.20;;
33926;SDS011;20485;50.992;5.550;2023-11-19T12:44:36;43.03;;;5.10;;
33926;SDS011;20485;50.992;5.550;2023-11-19T12:47:06;36.22;;;4.93;;
33926;SDS011;20485;50.992;5.550;2023-11-19T12:49:37;30.77;;;5.88;;
33926;SDS011;20485;50.992;5.550;2023-11-19T12:52:14;34.97;;;5.40;;
33926;SDS011;20485;50.992;5.550;2023-11-19T12:54:49;26.52;;;6.20;;
33926;SDS011;20485;50.992;5.550;2023-11-19T12:57:44;33.55;;;5.25;;
33926;SDS011;20485;50.992;5.550;2023-11-19T13:00:24;24.73;;;4.50;;
33926;SDS011;20485;50.992;5.550;2023-11-19T13:05:33;29.63;;;4.75;;
33926;SDS011;20485;50.992;5.550;2023-11-19T13:08:03;37.38;;;5.25;;
33926;SDS011;20485;50.992;5.550;2023-11-19T13:10:53;35.17;;;4.70;;
33926;SDS011;20485;50.992;5.550;2023-11-19T13:13:23;32.40;;;4.25;;
33926;SDS011;20485;50.992;5.550;2023-11-19T13:16:00;30.58;;;4.50;;
33926;SDS011;20485;50.992;5.550;2023-11-19T13:18:38;22.83;;;3.70;;
33926;SDS011;20485;50.992;5.550;2023-11-19T13:21:11;30.38;;;3.53;;
33926;SDS011;20485;50.992;5.550;2023-11-19T13:23:55;31.95;;;3.95;;
33926;SDS011;20485;50.992;5.550;2023-11-19T13:26:36;21.73;;;3.40;;
33926;SDS011;20485;50.992;5.550;2023-11-19T13:31:46;29.02;;;3.38;;
33926;SDS011;20485;50.992;5.550;2023-11-19T13:34:24;26.60;;;3.45;;
33926;SDS011;20485;50.992;5.550;2023-11-19T13:41:48;34.35;;;4.38;;
33926;SDS011;20485;50.992;5.550;2023-11-19T13:44:26;27.55;;;4.22;;
33926;SDS011;20485;50.992;5.550;2023-11-19T13:46:52;36.63;;;5.07;;
33926;SDS011;20485;50.992;5.550;2023-11-19T13:49:20;31.55;;;4.43;;
33926;SDS011;20485;50.992;5.550;2023-11-19T13:51:47;29.13;;;4.25;;
33926;SDS011;20485;50.992;5.550;2023-11-19T13:54:14;25.38;;;4.20;;
33926;SDS011;20485;50.992;5.550;2023-11-19T13:56:55;26.42;;;3.97;;
33926;SDS011;20485;50.992;5.550;2023-11-19T13:59:26;33.00;;;5.15;;
33926;SDS011;20485;50.992;5.550;2023-11-19T14:05:00;24.05;;;3.70;;
33926;SDS011;20485;50.992;5.550;2023-11-19T14:07:31;26.50;;;4.20;;
33926;SDS011;20485;50.992;5.550;2023-11-19T14:10:01;29.33;;;5.65;;
33926;SDS011;20485;50.992;5.550;2023-11-19T14:12:40;28.55;;;4.20;;
33926;SDS011;20485;50.992;5.550;2023-11-19T14:15:16;30.40;;;4.38;;
33926;SDS011;20485;50.992;5.550;2023-11-19T14:17:46;31.67;;;4.88;;
33926;SDS011;20485;50.992;5.550;2023-11-19T14:20:11;24.50;;;3.88;;
33926;SDS011;20485;50.992;5.550;2023-11-19T14:22:40;30.27;;;4.40;;
33926;SDS011;20485;50.992;5.550;2023-11-19T14:25:15;27.50;;;4.25;;
33926;SDS011;20485;50.992;5.550;2023-11-19T14:27:41;26.40;;;3.45;;
33926;SDS011;20485;50.992;5.550;2023-11-19T14:30:09;38.58;;;4.68;;
33926;SDS011;20485;50.992;5.550;2023-11-19T14:32:38;22.13;;;3.45;;
33926;SDS011;20485;50.992;5.550;2023-11-19T14:35:09;33.20;;;4.43;;
33926;SDS011;20485;50.992;5.550;2023-11-19T14:37:36;30.92;;;4.13;;
